Time;durP1;ratioP1;P1;durP2;ratioP2;P2;SDS_P1;SDS_P2;PMS_P1;PMS_P2;Temp;Humidity;BMP_temperature;BMP_pressure;BME280_temperature;BME280_humidity;BME280_pressure;Samples;Min_cycle;Max_cycle;Signal;HPM_P1;HPM_P2
2022/06/16 00:00:10;;;;;;;2.35;0.88;;;12.90;99.90;;;;;;4945090;29;20047;-85
2022/06/16 00:02:43;;;;;;;2.53;0.73;;;12.90;99.90;;;;;;4971322;28;20039;-85
2022/06/16 00:05:11;;;;;;;3.03;0.70;;;12.90;99.90;;;;;;4948116;28;20054;-85
2022/06/16 00:07:37;;;;;;;1.75;0.90;;;12.90;99.90;;;;;;4954376;28;20058;-85
2022/06/16 00:10:04;;;;;;;0.98;0.63;;;12.90;99.90;;;;;;4965554;28;20043;-85
2022/06/16 00:12:30;;;;;;;1.20;0.75;;;12.90;99.90;;;;;;4951429;28;20058;-86
2022/06/16 00:14:56;;;;;;;1.15;0.70;;;12.90;99.90;;;;;;4962212;28;20126;-85
2022/06/16 00:17:22;;;;;;;1.73;0.55;;;12.80;99.90;;;;;;4969109;28;20038;-85
2022/06/16 00:19:48;;;;;;;0.93;0.60;;;12.80;99.90;;;;;;4952315;28;20039;-84
2022/06/16 00:22:13;;;;;;;1.55;0.63;;;12.80;99.90;;;;;;4947449;29;20043;-85
2022/06/16 00:24:39;;;;;;;1.15;0.80;;;12.80;99.90;;;;;;4967499;28;20038;-84
2022/06/16 00:27:05;;;;;;;1.50;0.60;;;12.80;99.90;;;;;;4962177;28;20039;-85
2022/06/16 00:29:31;;;;;;;3.20;0.60;;;12.80;99.90;;;;;;4947442;28;20047;-85
2022/06/16 00:31:56;;;;;;;2.22;0.68;;;12.80;99.90;;;;;;4968278;28;20043;-86
2022/06/16 00:34:22;;;;;;;2.00;0.70;;;12.90;99.90;;;;;;4962262;28;20090;-85
2022/06/16 00:36:48;;;;;;;1.98;0.50;;;12.80;99.90;;;;;;4964091;28;20039;-86
2022/06/16 00:39:14;;;;;;;2.35;0.60;;;12.90;99.90;;;;;;4965244;28;20050;-86
2022/06/16 00:41:40;;;;;;;1.05;0.57;;;12.80;99.90;;;;;;4953945;28;20101;-85
2022/06/16 00:44:32;;;;;;;0.73;0.40;;;12.90;99.90;;;;;;4944340;29;20090;-85
2022/06/16 00:46:58;;;;;;;1.50;0.95;;;12.90;99.90;;;;;;4958311;28;20051;-85
2022/06/16 00:49:24;;;;;;;0.85;0.50;;;12.90;99.90;;;;;;4966826;28;20043;-85
2022/06/16 00:51:55;;;;;;;1.60;0.60;;;12.90;99.90;;;;;;4969037;28;20046;-85
2022/06/16 00:54:32;;;;;;;0.80;0.50;;;12.90;99.90;;;;;;4954496;29;20059;-85
2022/06/16 00:57:06;;;;;;;1.30;0.50;;;12.90;99.90;;;;;;4945196;28;20047;-85
2022/06/16 00:59:32;;;;;;;1.13;0.60;;;12.90;99.90;;;;;;4972039;28;20094;-85
2022/06/16 01:01:59;;;;;;;0.73;0.30;;;12.90;99.90;;;;;;4967454;28;20055;-85
2022/06/16 01:07:13;;;;;;;2.65;0.50;;;12.90;99.90;;;;;;4949864;29;20368;-85
2022/06/16 01:09:41;;;;;;;1.98;0.60;;;12.90;99.90;;;;;;4957510;28;20043;-85
2022/06/16 01:15:53;;;;;;;1.10;0.50;;;12.50;99.90;;;;;;4972214;28;20042;-86
2022/06/16 01:18:43;;;;;;;2.15;0.57;;;12.90;99.90;;;;;;4976923;28;20373;-85
2022/06/16 01:21:23;;;;;;;0.57;0.40;;;12.80;99.90;;;;;;4952640;28;20050;-85
2022/06/16 01:23:57;;;;;;;0.95;0.60;;;12.80;99.90;;;;;;4966623;28;20047;-86
2022/06/16 01:26:59;;;;;;;0.95;0.40;;;12.70;99.90;;;;;;4955462;29;20047;-85
2022/06/16 01:33:52;;;;;;;1.40;0.40;;;12.10;99.90;;;;;;4966539;28;20054;-86
2022/06/16 01:36:41;;;;;;;2.50;0.43;;;12.60;99.90;;;;;;4973802;28;20043;-86
2022/06/16 01:39:16;;;;;;;0.90;0.45;;;12.80;99.90;;;;;;4965255;28;20050;-85
2022/06/16 01:42:05;;;;;;;1.15;0.50;;;12.80;99.90;;;;;;4952120;29;20130;-85
2022/06/16 01:44:41;;;;;;;1.30;0.50;;;12.80;99.90;;;;;;4963699;28;20047;-85
2022/06/16 01:47:12;;;;;;;2.53;0.40;;;12.70;99.90;;;;;;4964776;28;20054;-86
2022/06/16 01:49:45;;;;;;;1.42;0.47;;;12.70;99.90;;;;;;4951659;29;20043;-85
2022/06/16 01:52:21;;;;;;;2.05;0.80;;;12.60;99.90;;;;;;4967151;28;20499;-86
2022/06/16 01:54:53;;;;;;;1.70;1.20;;;12.50;99.90;;;;;;4967237;28;20079;-86
2022/06/16 01:57:35;;;;;;;1.50;0.90;;;12.30;99.90;;;;;;4966290;28;20582;-86
2022/06/16 02:00:05;;;;;;;2.10;0.63;;;12.30;99.90;;;;;;4966031;28;20058;-86
2022/06/16 02:02:34;;;;;;;1.40;0.70;;;12.30;99.90;;;;;;4968343;28;20038;-84
2022/06/16 02:05:03;;;;;;;2.55;0.70;;;13.10;99.90;;;;;;4966407;28;20050;-86
2022/06/16 02:07:50;;;;;;;3.78;0.70;;;12.60;99.90;;;;;;4952352;29;20385;-85
2022/06/16 02:10:24;;;;;;;0.70;0.60;;;12.20;99.90;;;;;;4953165;28;20142;-86
2022/06/16 02:12:56;;;;;;;1.02;0.68;;;12.30;99.90;;;;;;4963242;28;20110;-85
2022/06/16 02:15:46;;;;;;;0.80;0.60;;;12.30;99.90;;;;;;4957201;28;20184;-85
2022/06/16 02:18:17;;;;;;;3.60;0.80;;;12.30;99.90;;;;;;4949362;28;20054;-85
2022/06/16 02:21:07;;;;;;;1.23;0.70;;;12.30;99.90;;;;;;4957738;28;20082;-86
2022/06/16 02:23:33;;;;;;;1.25;0.70;;;12.30;99.90;;;;;;4950682;28;20051;-86
2022/06/16 02:26:00;;;;;;;3.55;0.85;;;12.30;99.90;;;;;;4966175;28;20101;-86
2022/06/16 02:28:26;;;;;;;1.77;0.82;;;12.30;99.90;;;;;;4963473;28;20130;-85
2022/06/16 02:31:21;;;;;;;0.90;0.70;;;12.70;99.90;;;;;;4946450;29;20539;-86
2022/06/16 02:34:11;;;;;;;0.73;0.43;;;12.30;99.90;;;;;;4951472;28;20046;-85
2022/06/16 02:37:14;;;;;;;2.08;0.70;;;12.30;99.90;;;;;;4946473;29;20110;-86
2022/06/16 02:39:55;;;;;;;0.80;0.63;;;12.30;99.90;;;;;;4966185;28;20047;-85
2022/06/16 02:42:57;;;;;;;3.58;0.70;;;12.30;99.90;;;;;;4965694;28;20515;-86
2022/06/16 02:45:39;;;;;;;2.40;0.80;;;12.30;99.90;;;;;;4956166;28;21314;-85
2022/06/16 02:48:19;;;;;;;1.50;0.80;;;12.30;99.90;;;;;;4956325;28;20050;-85
2022/06/16 02:50:59;;;;;;;1.23;0.70;;;12.20;99.90;;;;;;4966424;28;20361;-86
2022/06/16 02:56:41;;;;;;;1.20;0.57;;;12.20;99.90;;;;;;4964270;28;20050;-86
2022/06/16 02:59:54;;;;;;;3.35;0.60;;;12.20;99.90;;;;;;4950444;28;20082;-85
2022/06/16 03:02:22;;;;;;;1.42;0.40;;;12.10;99.90;;;;;;4876197;29;20128;-86
2022/06/16 03:04:57;;;;;;;0.70;0.60;;;12.10;99.90;;;;;;4858306;29;20045;-85
2022/06/16 03:07:24;;;;;;;0.90;0.60;;;12.00;99.90;;;;;;4861049;29;20098;-85
2022/06/16 03:09:50;;;;;;;2.35;0.90;;;12.60;99.90;;;;;;4877287;29;20055;-85
2022/06/16 03:12:15;;;;;;;2.67;0.70;;;12.00;99.90;;;;;;4877092;29;20045;-85
2022/06/16 03:14:42;;;;;;;1.00;0.60;;;12.80;99.90;;;;;;4861756;29;20135;-86
2022/06/16 03:17:11;;;;;;;1.15;0.50;;;12.20;99.90;;;;;;4846340;29;20085;-85
2022/06/16 03:19:37;;;;;;;1.40;0.60;;;12.00;99.90;;;;;;4854853;29;20053;-85
2022/06/16 03:22:04;;;;;;;2.40;0.70;;;12.30;99.90;;;;;;4876875;29;20053;-85
2022/06/16 03:24:30;;;;;;;1.35;0.60;;;12.00;99.90;;;;;;4877149;29;20045;-85
2022/06/16 03:26:56;;;;;;;1.13;0.65;;;12.10;99.90;;;;;;4854691;29;20060;-85
2022/06/16 03:29:23;;;;;;;0.50;0.50;;;12.00;99.90;;;;;;4877117;29;20041;-85
2022/06/16 03:31:49;;;;;;;0.63;0.43;;;12.70;99.90;;;;;;4865006;29;20048;-85
2022/06/16 03:34:15;;;;;;;2.60;0.82;;;12.10;99.90;;;;;;4961502;28;20444;-85
2022/06/16 03:36:41;;;;;;;0.90;0.52;;;12.10;99.90;;;;;;4947878;28;20043;-85
2022/06/16 03:39:07;;;;;;;1.95;0.50;;;12.10;99.90;;;;;;4944991;29;20504;-85
2022/06/16 03:41:33;;;;;;;2.05;0.60;;;12.20;99.90;;;;;;4948257;28;20400;-85
2022/06/16 03:43:59;;;;;;;1.20;0.50;;;12.20;99.90;;;;;;4967489;28;20443;-86
2022/06/16 03:46:25;;;;;;;1.70;0.57;;;12.50;99.90;;;;;;4934498;28;20039;-85
2022/06/16 03:48:52;;;;;;;0.73;0.30;;;12.30;99.90;;;;;;4948356;28;20408;-85
2022/06/16 03:51:18;;;;;;;1.10;0.60;;;12.30;99.90;;;;;;4948753;29;20047;-85
2022/06/16 03:53:45;;;;;;;1.70;0.63;;;13.10;99.90;;;;;;4953919;28;20061;-85
2022/06/16 03:56:11;;;;;;;1.52;0.65;;;12.30;99.90;;;;;;4950868;29;20039;-85
2022/06/16 03:58:38;;;;;;;2.10;0.60;;;12.40;99.90;;;;;;4952632;28;20043;-85
2022/06/16 04:01:04;;;;;;;1.33;0.63;;;12.40;99.90;;;;;;4965614;28;20038;-85
2022/06/16 04:06:14;;;;;;;0.82;0.40;;;12.30;99.90;;;;;;4965334;28;20061;-85
2022/06/16 04:08:40;;;;;;;1.15;0.60;;;12.90;99.90;;;;;;4963917;28;20461;-85
2022/06/16 04:13:52;;;;;;;1.23;0.40;;;12.50;99.90;;;;;;4953724;28;20488;-85
2022/06/16 04:16:18;;;;;;;0.80;0.55;;;12.50;99.90;;;;;;4965381;28;20057;-85
2022/06/16 04:18:43;;;;;;;0.73;0.60;;;12.50;99.90;;;;;;4952853;28;20058;-85
2022/06/16 04:21:10;;;;;;;0.90;0.50;;;12.50;99.90;;;;;;4948141;28;20094;-85
2022/06/16 04:23:37;;;;;;;1.13;0.68;;;12.60;99.90;;;;;;4954230;28;20053;-85
2022/06/16 04:26:04;;;;;;;1.88;0.88;;;12.80;99.90;;;;;;4948171;29;20055;-85
2022/06/16 04:28:30;;;;;;;2.30;0.90;;;12.60;99.90;;;;;;4962304;28;20106;-85
2022/06/16 04:30:56;;;;;;;2.28;0.73;;;12.80;99.90;;;;;;4964247;28;20043;-85
2022/06/16 04:33:22;;;;;;;0.80;0.50;;;12.70;99.90;;;;;;4949310;28;20039;-85
2022/06/16 04:35:47;;;;;;;1.35;0.68;;;12.60;99.90;;;;;;4957744;28;20412;-86
2022/06/16 04:38:13;;;;;;;0.88;0.60;;;12.60;99.90;;;;;;4969406;28;20035;-85
2022/06/16 04:40:39;;;;;;;1.90;1.02;;;12.70;99.90;;;;;;4948601;29;20428;-85
2022/06/16 04:43:05;;;;;;;1.45;0.70;;;12.70;99.90;;;;;;4950202;28;20192;-85
2022/06/16 04:45:31;;;;;;;1.58;0.70;;;13.10;99.90;;;;;;4951084;28;20411;-85
2022/06/16 04:47:56;;;;;;;1.30;0.75;;;12.70;99.90;;;;;;4959177;28;20113;-84
2022/06/16 04:50:23;;;;;;;1.52;0.60;;;12.40;99.90;;;;;;4961721;28;20039;-85
2022/06/16 04:52:48;;;;;;;2.15;0.73;;;12.80;99.90;;;;;;4961303;28;20411;-86
2022/06/16 04:55:16;;;;;;;2.40;1.20;;;12.90;99.90;;;;;;4970391;28;20034;-84
2022/06/16 04:57:42;;;;;;;1.45;0.63;;;13.00;99.90;;;;;;4980891;28;20043;-86
2022/06/16 05:00:13;;;;;;;1.05;0.60;;;13.10;99.90;;;;;;4970537;28;20129;-85
2022/06/16 05:02:39;;;;;;;1.63;0.50;;;13.20;99.90;;;;;;4955826;29;20051;-85
2022/06/16 05:05:05;;;;;;;1.15;0.50;;;13.30;99.90;;;;;;4967331;28;20055;-85
2022/06/16 05:07:31;;;;;;;1.23;0.50;;;13.50;99.90;;;;;;4967584;28;20046;-84
2022/06/16 05:09:57;;;;;;;3.80;1.08;;;13.60;99.90;;;;;;4951174;28;20059;-85
2022/06/16 05:12:22;;;;;;;1.70;0.70;;;13.80;99.90;;;;;;4967138;28;20069;-85
2022/06/16 05:14:48;;;;;;;0.82;0.50;;;14.60;99.90;;;;;;4950872;28;20047;-85
2022/06/16 05:17:14;;;;;;;0.70;0.30;;;14.10;99.90;;;;;;4957461;28;20050;-85
2022/06/16 05:19:39;;;;;;;0.57;0.32;;;14.30;99.90;;;;;;4958046;28;20065;-86
2022/06/16 05:22:06;;;;;;;0.68;0.43;;;14.40;99.90;;;;;;4966335;28;20063;-85
2022/06/16 05:24:32;;;;;;;0.50;0.30;;;14.50;99.90;;;;;;4957383;28;20569;-86
2022/06/16 05:26:58;;;;;;;1.08;0.50;;;14.60;99.90;;;;;;4958123;28;20046;-85
2022/06/16 05:29:24;;;;;;;0.45;0.32;;;14.80;99.90;;;;;;4974537;28;20039;-86
2022/06/16 05:31:51;;;;;;;0.75;0.55;;;14.90;99.90;;;;;;4951240;29;20047;-85
2022/06/16 05:34:16;;;;;;;0.82;0.30;;;14.90;99.90;;;;;;4967257;28;20055;-86
2022/06/16 05:36:46;;;;;;;0.32;0.30;;;15.10;99.90;;;;;;4947211;28;20523;-85
2022/06/16 05:39:12;;;;;;;1.42;0.40;;;15.10;99.90;;;;;;4964833;28;20437;-86
2022/06/16 05:41:39;;;;;;;1.40;0.35;;;15.00;99.90;;;;;;4957315;28;20129;-86
2022/06/16 05:44:05;;;;;;;0.60;0.30;;;15.40;99.90;;;;;;4949189;28;20066;-85
2022/06/16 05:46:36;;;;;;;1.38;0.40;;;15.40;99.90;;;;;;4954818;29;20457;-89
2022/06/16 05:49:03;;;;;;;0.80;0.38;;;15.50;99.90;;;;;;4947284;28;20097;-91
2022/06/16 05:51:29;;;;;;;0.35;0.22;;;15.70;99.90;;;;;;4947497;29;20115;-89
2022/06/16 05:53:55;;;;;;;0.60;0.20;;;16.10;99.90;;;;;;4957547;28;20063;-88
2022/06/16 05:56:21;;;;;;;0.43;0.28;;;15.80;99.90;;;;;;4965041;28;20125;-85
2022/06/16 05:58:46;;;;;;;1.67;0.38;;;15.90;99.90;;;;;;4962699;28;20064;-85
2022/06/16 06:01:16;;;;;;;0.32;0.30;;;16.00;99.90;;;;;;4967585;28;20051;-83
2022/06/16 06:03:43;;;;;;;0.60;0.30;;;16.10;99.90;;;;;;4967499;28;20508;-85
2022/06/16 06:06:10;;;;;;;0.75;0.35;;;16.40;99.90;;;;;;4967471;28;20446;-85
2022/06/16 06:17:14;;;;;;;1.90;0.45;;;16.70;99.90;;;;;;4954015;28;20113;-85
2022/06/16 06:19:40;;;;;;;2.22;0.50;;;16.80;99.90;;;;;;4949797;28;20046;-86
2022/06/16 06:22:15;;;;;;;1.65;0.40;;;16.70;99.90;;;;;;4951738;29;20054;-85
2022/06/16 06:24:44;;;;;;;2.53;0.40;;;17.00;99.90;;;;;;4966731;28;20050;-85
2022/06/16 06:27:33;;;;;;;1.83;0.30;;;17.00;99.90;;;;;;4967016;28;20057;-84
2022/06/16 06:29:59;;;;;;;1.13;0.35;;;17.10;99.90;;;;;;4964215;28;20101;-84
2022/06/16 06:32:26;;;;;;;0.98;0.30;;;17.40;99.90;;;;;;4953966;28;20055;-83
2022/06/16 06:34:53;;;;;;;4.13;0.43;;;17.40;99.90;;;;;;4963778;28;20116;-83
2022/06/16 06:37:21;;;;;;;1.83;0.30;;;17.50;99.90;;;;;;4963986;28;20110;-84
2022/06/16 06:39:49;;;;;;;1.60;0.50;;;17.60;99.90;;;;;;4966762;28;20039;-85
2022/06/16 06:42:15;;;;;;;2.15;0.40;;;17.70;99.90;;;;;;4950465;29;20075;-84
2022/06/16 06:44:41;;;;;;;1.55;0.40;;;17.70;99.90;;;;;;4953941;28;20089;-84
2022/06/16 06:47:07;;;;;;;0.82;0.40;;;17.90;99.90;;;;;;4965435;28;20067;-83
2022/06/16 06:49:32;;;;;;;1.40;0.30;;;18.00;99.90;;;;;;4954881;28;20495;-85
2022/06/16 06:51:59;;;;;;;0.20;0.20;;;18.00;99.90;;;;;;4963574;28;20077;-86
2022/06/16 06:54:25;;;;;;;0.82;0.30;;;18.10;99.90;;;;;;4955665;29;20094;-85
2022/06/16 06:56:51;;;;;;;1.33;0.20;;;18.10;99.90;;;;;;4938539;29;20074;-86
2022/06/16 06:59:19;;;;;;;0.75;0.20;;;18.10;99.90;;;;;;4938687;29;20227;-86
2022/06/16 07:01:49;;;;;;;0.70;0.20;;;18.20;99.90;;;;;;4969737;28;20575;-88
2022/06/16 07:04:17;;;;;;;2.45;0.30;;;18.30;99.90;;;;;;4975155;28;20507;-87
2022/06/16 07:06:50;;;;;;;0.60;0.35;;;18.50;99.90;;;;;;4958084;28;20094;-86
2022/06/16 07:09:19;;;;;;;1.88;0.30;;;18.70;99.90;;;;;;4974194;28;20047;-87
2022/06/16 07:11:45;;;;;;;1.83;0.40;;;18.70;99.90;;;;;;4974967;28;20054;-87
2022/06/16 07:14:12;;;;;;;1.80;0.30;;;18.80;99.90;;;;;;4957824;28;20136;-87
2022/06/16 07:16:38;;;;;;;0.82;0.30;;;18.80;99.90;;;;;;4958191;28;20134;-88
2022/06/16 07:19:04;;;;;;;0.95;0.30;;;18.90;99.90;;;;;;4957645;28;20055;-88
2022/06/16 07:21:30;;;;;;;1.20;0.30;;;19.10;99.90;;;;;;4957557;28;20133;-88
2022/06/16 07:24:05;;;;;;;2.25;0.32;;;18.90;99.90;;;;;;4938591;28;20047;-89
2022/06/16 07:26:32;;;;;;;0.90;0.40;;;19.10;99.90;;;;;;4938819;29;20050;-86
2022/06/16 07:29:00;;;;;;;1.80;0.50;;;19.20;99.90;;;;;;4956300;28;20086;-88
2022/06/16 07:31:29;;;;;;;1.73;0.35;;;19.40;99.90;;;;;;4957642;28;20035;-86
2022/06/16 07:33:56;;;;;;;1.13;0.30;;;19.60;99.90;;;;;;4974200;28;20396;-89
2022/06/16 07:36:22;;;;;;;1.25;0.30;;;19.80;99.90;;;;;;4956623;28;20074;-88
2022/06/16 07:38:51;;;;;;;1.23;0.43;;;20.10;99.90;;;;;;4974957;28;20054;-88
2022/06/16 07:41:34;;;;;;;2.75;0.40;;;20.30;99.90;;;;;;4957987;28;20039;-87
2022/06/16 07:44:11;;;;;;;1.67;0.50;;;20.40;99.90;;;;;;4974969;28;20137;-87
2022/06/16 07:46:39;;;;;;;1.63;0.38;;;20.30;99.80;;;;;;4941572;28;20051;-87
2022/06/16 07:49:09;;;;;;;0.38;0.13;;;20.10;99.60;;;;;;4974401;28;20074;-87
2022/06/16 07:51:35;;;;;;;0.88;0.20;;;20.30;99.40;;;;;;4957140;28;20050;-85
2022/06/16 07:54:01;;;;;;;0.68;0.20;;;20.30;99.90;;;;;;4973995;28;20085;-85
2022/06/16 07:56:27;;;;;;;1.35;0.20;;;20.40;99.90;;;;;;4973711;28;20073;-87
2022/06/16 07:58:52;;;;;;;1.02;0.20;;;20.50;99.90;;;;;;4974316;28;20042;-85
2022/06/16 08:01:19;;;;;;;0.75;0.25;;;20.40;99.90;;;;;;4956890;28;20177;-86
2022/06/16 08:03:47;;;;;;;1.00;0.22;;;20.50;99.90;;;;;;4957113;28;20403;-88
2022/06/16 08:06:18;;;;;;;2.05;0.30;;;20.70;99.90;;;;;;4956431;28;20045;-86
2022/06/16 08:08:44;;;;;;;1.15;0.30;;;20.90;99.90;;;;;;4973488;28;20530;-85
2022/06/16 08:13:57;;;;;;;;;;;21.00;99.90;;;;;;4974478;28;20062;-88
2022/06/16 08:16:23;;;;;;;1.10;0.30;;;21.30;99.90;;;;;;4957282;28;19973;-88
2022/06/16 08:18:50;;;;;;;1.05;0.30;;;21.40;98.30;;;;;;4974427;28;20129;-87
2022/06/16 08:21:16;;;;;;;0.60;0.30;;;21.40;99.90;;;;;;4973953;28;20053;-87
2022/06/16 08:23:44;;;;;;;1.90;0.52;;;21.30;98.50;;;;;;4940020;28;20137;-87
2022/06/16 08:26:13;;;;;;;0.85;0.20;;;21.30;99.60;;;;;;4956947;28;20046;-88
2022/06/16 08:28:39;;;;;;;1.60;0.40;;;21.30;99.10;;;;;;4988434;28;20102;-85
2022/06/16 08:31:10;;;;;;;2.28;0.47;;;21.40;98.70;;;;;;4986751;28;20101;-88
2022/06/16 08:33:39;;;;;;;0.85;0.20;;;21.30;98.40;;;;;;4975020;28;20392;-85
2022/06/16 08:36:08;;;;;;;0.88;0.28;;;21.50;97.50;;;;;;4970495;28;20057;-86
2022/06/16 08:38:33;;;;;;;0.77;0.30;;;21.20;99.10;;;;;;4974267;28;20039;-85
2022/06/16 08:41:15;;;;;;;1.15;0.20;;;21.90;99.40;;;;;;4961552;29;20539;-87
2022/06/16 08:43:56;;;;;;;2.45;0.38;;;22.10;99.10;;;;;;4938167;29;20063;-87
2022/06/16 08:46:27;;;;;;;2.35;0.30;;;22.30;98.90;;;;;;4937313;29;20412;-90
2022/06/16 08:49:12;;;;;;;0.47;0.30;;;22.40;95.90;;;;;;4958586;28;20102;-86
2022/06/16 08:51:53;;;;;;;1.95;0.40;;;22.60;95.40;;;;;;4956667;28;20057;-84
2022/06/16 08:54:33;;;;;;;0.90;0.38;;;22.80;96.30;;;;;;4973552;28;20058;-86
2022/06/16 08:57:15;;;;;;;1.10;0.40;;;23.00;94.80;;;;;;4973911;28;20109;-86
2022/06/16 08:59:48;;;;;;;2.50;0.50;;;23.00;96.70;;;;;;4956212;28;20061;-86
2022/06/16 09:02:50;;;;;;;1.17;0.40;;;23.30;94.00;;;;;;4973497;28;20439;-88
2022/06/16 09:05:51;;;;;;;1.02;0.30;;;23.10;93.00;;;;;;4973485;28;20456;-86
2022/06/16 09:08:32;;;;;;;2.00;0.40;;;23.00;94.30;;;;;;4940185;28;20050;-86
2022/06/16 09:11:10;;;;;;;2.30;0.40;;;22.90;94.30;;;;;;4956397;28;20043;-86
2022/06/16 09:14:00;;;;;;;2.03;0.40;;;23.00;92.30;;;;;;4956168;28;20062;-85
2022/06/16 09:16:52;;;;;;;1.02;0.45;;;22.70;91.30;;;;;;4956707;28;20119;-87
2022/06/16 09:19:53;;;;;;;0.73;0.35;;;22.30;93.40;;;;;;4957507;28;20149;-86
2022/06/16 09:22:28;;;;;;;1.10;0.30;;;22.10;92.80;;;;;;4959730;28;20499;-88
2022/06/16 09:25:02;;;;;;;0.45;0.40;;;22.20;94.10;;;;;;4943673;28;20061;-85
2022/06/16 09:27:41;;;;;;;2.80;0.50;;;22.40;92.00;;;;;;4959646;28;20061;-87
2022/06/16 09:30:19;;;;;;;2.08;0.77;;;22.70;89.80;;;;;;4960028;28;20082;-86
2022/06/16 09:32:54;;;;;;;1.70;0.40;;;22.70;88.50;;;;;;4976999;28;20047;-87
2022/06/16 09:35:34;;;;;;;0.68;0.40;;;22.70;87.50;;;;;;4959491;28;20051;-85
2022/06/16 09:38:08;;;;;;;0.77;0.50;;;22.60;86.80;;;;;;4959800;28;20050;-86
2022/06/16 09:40:39;;;;;;;1.00;0.33;;;22.60;85.00;;;;;;4959770;28;20054;-85
2022/06/16 09:43:24;;;;;;;1.67;0.40;;;22.60;87.80;;;;;;4959416;28;20082;-86
2022/06/16 09:46:01;;;;;;;0.33;0.30;;;22.70;90.30;;;;;;4959421;28;20051;-85
2022/06/16 09:48:49;;;;;;;3.35;0.50;;;22.90;90.90;;;;;;4959345;28;20298;-87
2022/06/16 09:51:37;;;;;;;1.50;0.40;;;23.10;86.10;;;;;;4976676;28;20476;-87
2022/06/16 09:54:14;;;;;;;0.88;0.40;;;23.10;85.70;;;;;;4958981;28;20055;-86
2022/06/16 09:56:54;;;;;;;1.73;0.50;;;23.20;90.50;;;;;;4959056;28;20047;-87
2022/06/16 09:59:25;;;;;;;0.57;0.35;;;23.20;86.40;;;;;;4958982;28;20133;-87
2022/06/16 10:01:57;;;;;;;2.53;0.40;;;23.20;87.70;;;;;;4959180;28;20043;-88
2022/06/16 10:04:23;;;;;;;1.75;0.40;;;23.50;89.90;;;;;;4959301;28;20066;-87
2022/06/16 10:07:24;;;;;;;1.10;0.43;;;23.80;89.10;;;;;;4959050;28;20050;-88
2022/06/16 10:09:59;;;;;;;3.20;0.50;;;23.70;86.30;;;;;;4958865;28;20129;-86
2022/06/16 10:12:48;;;;;;;5.05;0.70;;;23.60;83.90;;;;;;4976142;28;20451;-87
2022/06/16 10:15:21;;;;;;;3.95;0.70;;;23.60;84.40;;;;;;4958828;28;20055;-85
2022/06/16 10:17:48;;;;;;;2.45;0.60;;;23.90;83.30;;;;;;4976270;28;20400;-84
2022/06/16 10:20:18;;;;;;;1.15;0.63;;;24.10;82.60;;;;;;4958761;28;20057;-87
2022/06/16 10:23:18;;;;;;;1.63;0.60;;;24.10;81.60;;;;;;4939068;28;20079;-87
2022/06/16 10:26:15;;;;;;;1.58;0.60;;;24.20;84.30;;;;;;4939433;29;20051;-91
2022/06/16 10:29:22;;;;;;;2.00;0.60;;;24.20;84.20;;;;;;4939391;29;20058;-88
2022/06/16 10:31:50;;;;;;;1.02;0.60;;;24.00;85.50;;;;;;4912172;29;20056;-85
2022/06/16 10:34:35;;;;;;;2.28;0.65;;;23.90;83.30;;;;;;4900333;29;20547;-85
2022/06/16 10:37:14;;;;;;;1.17;0.40;;;24.00;85.30;;;;;;4900149;29;20056;-86
2022/06/16 10:39:54;;;;;;;0.60;0.38;;;24.10;88.70;;;;;;4900607;29;20055;-85
2022/06/16 10:42:28;;;;;;;1.95;0.50;;;24.20;84.90;;;;;;4900272;29;20060;-86
2022/06/16 10:44:56;;;;;;;2.25;0.60;;;24.30;86.20;;;;;;4915614;29;20056;-84
2022/06/16 10:47:31;;;;;;;2.40;0.70;;;24.40;85.60;;;;;;4915906;29;20052;-85
2022/06/16 10:49:57;;;;;;;2.50;0.52;;;25.00;81.10;;;;;;4911365;29;20067;-86
2022/06/16 10:52:31;;;;;;;1.67;0.70;;;24.70;80.70;;;;;;4900007;29;20051;-84
2022/06/16 10:54:59;;;;;;;1.52;0.50;;;24.70;80.50;;;;;;4915774;29;20087;-84
2022/06/16 10:57:28;;;;;;;2.50;0.60;;;24.70;84.50;;;;;;4915853;29;20424;-84
2022/06/16 11:00:17;;;;;;;3.22;0.70;;;24.80;81.80;;;;;;4915735;29;20429;-84
2022/06/16 11:02:57;;;;;;;4.15;0.47;;;25.00;77.10;;;;;;4914948;29;20055;-84
2022/06/16 11:05:24;;;;;;;1.13;0.50;;;25.10;80.60;;;;;;4914642;29;20107;-84
2022/06/16 11:07:49;;;;;;;1.10;0.60;;;25.40;81.30;;;;;;4929166;28;20562;-84
2022/06/16 11:10:37;;;;;;;3.25;1.20;;;25.50;77.50;;;;;;4958045;28;20042;-83
2022/06/16 11:13:04;;;;;;;1.73;0.60;;;25.30;75.50;;;;;;4956851;28;20113;-83
2022/06/16 11:15:40;;;;;;;1.42;0.55;;;25.00;77.90;;;;;;4972884;28;20039;-84
2022/06/16 11:18:15;;;;;;;4.28;0.80;;;25.30;76.20;;;;;;4974772;28;20403;-84
2022/06/16 11:20:44;;;;;;;1.77;0.50;;;25.60;74.40;;;;;;4974886;28;20074;-84
2022/06/16 11:23:22;;;;;;;1.42;0.65;;;25.50;71.80;;;;;;4975131;28;20042;-88
2022/06/16 11:26:17;;;;;;;2.05;0.60;;;25.20;73.30;;;;;;4951214;29;20452;-89
2022/06/16 11:29:06;;;;;;;;;;;;;;;;;;;;;
2022/06/16 11:31:52;;;;;;;1.85;0.73;;;25.40;72.20;;;;;;4944918;29;20062;-90
2022/06/16 11:34:44;;;;;;;1.23;0.50;;;25.30;72.60;;;;;;5129258;23;20412;-86
2022/06/16 11:37:12;;;;;;;1.10;0.50;;;25.40;75.70;;;;;;4936895;29;20069;-85
2022/06/16 11:40:19;;;;;;;1.02;0.60;;;25.60;72.30;;;;;;4936905;29;20063;-85
2022/06/16 11:43:19;;;;;;;2.78;0.60;;;26.00;66.00;;;;;;4937097;29;20048;-85
2022/06/16 11:46:08;;;;;;;0.65;0.47;;;25.80;70.80;;;;;;4937081;29;20201;-85
2022/06/16 11:48:53;;;;;;;1.30;0.50;;;25.50;67.70;;;;;;4937363;29;20051;-85
2022/06/16 11:51:30;;;;;;;2.23;0.53;;;25.70;70.50;;;;;;4937392;29;20039;-85
2022/06/16 11:54:01;;;;;;;1.50;0.50;;;25.80;69.20;;;;;;4957427;28;20304;-86
2022/06/16 11:56:46;;;;;;;3.20;0.45;;;25.90;68.80;;;;;;4934593;29;20489;-85
2022/06/16 11:59:35;;;;;;;2.63;0.50;;;25.70;67.90;;;;;;4934655;29;20040;-85
2022/06/16 12:02:24;;;;;;;1.25;0.60;;;25.60;71.60;;;;;;4936316;29;20043;-85
2022/06/16 12:05:05;;;;;;;2.65;0.50;;;25.60;67.40;;;;;;4951581;29;20058;-85
2022/06/16 12:07:49;;;;;;;2.60;0.60;;;25.80;69.10;;;;;;4943869;29;20373;-85
2022/06/16 12:10:35;;;;;;;0.93;0.55;;;26.70;65.40;;;;;;4937616;29;20071;-85
2022/06/16 12:13:20;;;;;;;1.55;0.47;;;26.40;68.20;;;;;;4966661;29;20087;-85
2022/06/16 12:15:48;;;;;;;3.25;0.60;;;26.30;68.90;;;;;;4949036;29;20134;-85
2022/06/16 12:18:43;;;;;;;1.25;0.60;;;26.70;69.00;;;;;;4937346;29;20051;-85
2022/06/16 12:21:41;;;;;;;1.27;0.52;;;26.80;68.10;;;;;;4936669;29;20051;-86
2022/06/16 12:24:28;;;;;;;2.20;0.50;;;26.90;63.80;;;;;;4935521;29;20471;-86
2022/06/16 12:27:17;;;;;;;1.25;0.60;;;26.10;68.80;;;;;;4937722;29;20122;-87
2022/06/16 12:30:15;;;;;;;2.25;0.57;;;26.10;71.70;;;;;;4954484;29;20099;-88
2022/06/16 12:32:58;;;;;;;4.50;0.80;;;26.40;70.10;;;;;;4852379;29;20071;-87
2022/06/16 12:35:35;;;;;;;2.60;0.70;;;26.60;68.10;;;;;;4849636;29;20089;-87
2022/06/16 12:38:12;;;;;;;1.52;0.40;;;27.10;66.40;;;;;;4970442;23;20050;-85
2022/06/16 12:41:09;;;;;;;2.78;0.70;;;26.50;71.70;;;;;;4947840;28;20055;-87
2022/06/16 12:44:01;;;;;;;1.75;0.50;;;26.60;70.40;;;;;;4868976;29;20502;-81
2022/06/16 12:46:42;;;;;;;1.58;0.70;;;25.90;69.00;;;;;;4822573;29;20168;-84
2022/06/16 12:49:30;;;;;;;0.88;0.40;;;27.00;69.10;;;;;;4820664;29;20098;-88
2022/06/16 12:52:04;;;;;;;1.52;0.57;;;26.60;66.40;;;;;;4838905;29;20065;-88
2022/06/16 12:54:39;;;;;;;1.80;0.57;;;26.60;69.80;;;;;;4832792;29;20100;-86
2022/06/16 12:57:28;;;;;;;1.85;0.60;;;26.60;67.90;;;;;;4836836;29;20050;-88
2022/06/16 13:00:15;;;;;;;0.70;0.50;;;26.50;70.40;;;;;;4827334;29;20116;-87
2022/06/16 13:02:46;;;;;;;1.63;0.80;;;26.20;70.50;;;;;;4842451;29;20050;-88
2022/06/16 13:05:13;;;;;;;2.13;0.40;;;26.30;70.10;;;;;;4834927;29;20050;-89
2022/06/16 13:07:49;;;;;;;0.85;0.40;;;25.90;70.00;;;;;;4827080;29;20095;-89
2022/06/16 13:10:18;;;;;;;3.83;0.40;;;26.10;69.10;;;;;;4817930;29;20057;-86
2022/06/16 13:12:50;;;;;;;0.88;0.45;;;26.40;69.30;;;;;;4821558;29;20134;-87
2022/06/16 13:15:23;;;;;;;;;;;26.50;69.40;;;;;;4821233;29;20083;-89
2022/06/16 13:17:54;;;;;;;1.27;0.50;;;26.20;68.90;;;;;;4826632;29;19968;-90
2022/06/16 13:20:35;;;;;;;1.05;0.60;;;26.10;69.80;;;;;;4853598;29;20092;-89
2022/06/16 13:23:12;;;;;;;1.23;0.63;;;26.10;71.00;;;;;;4895344;28;20058;-89
2022/06/16 13:25:44;;;;;;;1.00;0.52;;;26.20;69.00;;;;;;4956950;28;20498;-86
2022/06/16 13:28:34;;;;;;;0.68;0.40;;;26.50;66.80;;;;;;4975361;28;20054;-89
2022/06/16 13:31:50;;;;;;;2.08;0.50;;;26.40;67.90;;;;;;4955697;23;20051;-88
2022/06/16 13:34:45;;;;;;;0.90;0.32;;;26.30;66.90;;;;;;4929907;29;20095;-88
2022/06/16 13:37:57;;;;;;;1.27;0.50;;;26.50;66.70;;;;;;4845385;29;20110;-87
2022/06/16 13:40:27;;;;;;;1.33;0.50;;;26.10;65.70;;;;;;4857768;29;20061;-88
2022/06/16 13:43:11;;;;;;;1.02;0.60;;;25.90;66.90;;;;;;4837221;29;20086;-88
2022/06/16 13:45:48;;;;;;;1.35;0.50;;;25.70;67.30;;;;;;4851800;29;20045;-87
2022/06/16 13:48:31;;;;;;;1.75;0.45;;;26.00;67.90;;;;;;4859773;29;20462;-87
2022/06/16 13:51:29;;;;;;;1.75;0.50;;;25.90;67.10;;;;;;4838712;29;20077;-89
2022/06/16 13:58:20;;;;;;;1.05;0.60;;;26.10;68.80;;;;;;4771974;30;20128;-92